KDLF/DLF METAR and TAF weather

Enter ICAO airport designator
Station Type Date Time Source
KDLF METAR 2019/09/20 09:56 UTC NOAA

KDLF 200956Z AUTO 13013G19KT 10SM OVC022 28/23 A2984 RMK AO2 SLP089 T02790228 RVRNO $


Station Type Date Time Source
KDLF Decoded METAR 2019/09/20 09:56 UTC NOAA

Laughlin, Laughlin Air Force Base Auxiliary Airfield, TX, United States (KDLF) 29-07-00N 100-28-00W 294M
Sep 20, 2019 - 05:56 AM EDT / 2019.09.20 0956 UTC
Wind: from the SE (130 degrees) at 15 MPH (13 KT) gusting to 22 MPH (19 KT):0
Visibility: 10 mile(s):0
Sky conditions: overcast
Temperature: 82.2 F (27.9 C)
Dew Point: 73.0 F (22.8 C)
Relative Humidity: 73%
Pressure (altimeter): 29.84 in. Hg (1010 hPa)
ob: KDLF 200956Z AUTO 13013G19KT 10SM OVC022 28/23 A2984 RMK AO2 SLP089 T02790228 RVRNO
cycle: 10

Station Type Date Time Source
KDLF TAF 2019/09/20 10:12 UTC NOAA

TAF KDLF 201000Z 2010/2116 12012KT 9999 OVC020 QNH2982INS
BECMG 2010/2011 13012KT 8000 BR OVC015 QNH2986INS
TEMPO 2011/2014 OVC010
BECMG 2015/2016 14010G15KT 9999 NSW BKN020 QNH2989INS
BECMG 2017/2018 15012G20KT 9999 BKN030 QNH2983INS
BECMG 2019/2020 15015G25KT 9999 SCT050 QNH2981INS
BECMG 2102/2103 14012KT 9999 SCT065 QNH2987INS
BECMG 2108/2109 13010G15KT 9999 BKN020 QNH2993INS
BECMG 2111/2112 13012G18KT 9999 BKN015 QNH2996INS TX36/2021Z TN24/2012Z

Example: see airport list